Time;durP1;ratioP1;P1;durP2;ratioP2;P2;SDS_P1;SDS_P2;PMS_P1;PMS_P2;Temp;Humidity;BMP_temperature;BMP_pressure;BME280_temperature;BME280_humidity;BME280_pressure;Samples;Min_cycle;Max_cycle;Signal;HPM_P1;HPM_P2
2024/04/06 00:01:18;;;;;;;11.05;2.10;;;15.80;94.60;;;;;;5010257;28;20485;-82
2024/04/06 00:03:44;;;;;;;9.55;1.90;;;15.90;94.50;;;;;;5008785;28;20125;-82
2024/04/06 00:06:09;;;;;;;11.27;2.83;;;15.90;94.50;;;;;;5009081;28;20125;-83
2024/04/06 00:08:35;;;;;;;6.38;2.30;;;15.90;94.40;;;;;;5008040;28;20133;-82
2024/04/06 00:11:01;;;;;;;11.38;1.80;;;15.90;94.30;;;;;;5022088;28;20050;-82
2024/04/06 00:13:27;;;;;;;15.98;2.47;;;15.90;94.30;;;;;;5010146;28;20050;-83
2024/04/06 00:15:52;;;;;;;13.70;2.17;;;15.90;94.30;;;;;;5028691;28;20048;-83
2024/04/06 00:18:18;;;;;;;11.35;1.98;;;15.80;94.30;;;;;;5024145;28;20064;-83
2024/04/06 00:20:44;;;;;;;6.28;2.03;;;15.70;94.40;;;;;;5021082;28;20390;-82
2024/04/06 00:23:09;;;;;;;16.17;2.75;;;15.70;94.50;;;;;;5029339;28;20678;-83
2024/04/06 00:25:35;;;;;;;8.43;1.95;;;15.70;94.60;;;;;;5021723;28;20420;-82
2024/04/06 00:28:01;;;;;;;9.38;1.80;;;15.60;94.70;;;;;;5027063;28;20038;-82
2024/04/06 00:30:26;;;;;;;5.40;1.73;;;15.50;94.80;;;;;;5016782;28;20481;-81
2024/04/06 00:32:52;;;;;;;5.13;1.83;;;15.50;94.80;;;;;;5014050;28;20554;-81
2024/04/06 00:35:18;;;;;;;10.75;2.10;;;15.50;94.80;;;;;;5022434;28;20382;-82
2024/04/06 00:37:44;;;;;;;8.35;1.92;;;15.50;94.90;;;;;;5010152;28;20041;-75
2024/04/06 00:40:10;;;;;;;9.05;1.48;;;15.50;94.90;;;;;;5020800;28;20071;-80
2024/04/06 00:42:36;;;;;;;8.32;1.70;;;15.50;94.90;;;;;;5022081;28;20025;-80
2024/04/06 00:45:03;;;;;;;4.43;1.42;;;15.50;94.80;;;;;;5026857;28;20028;-81
2024/04/06 00:47:28;;;;;;;11.63;2.28;;;15.50;94.80;;;;;;5016310;28;20037;-83
2024/04/06 00:49:54;;;;;;;11.88;2.03;;;15.50;94.80;;;;;;5030345;28;20029;-83
2024/04/06 00:52:20;;;;;;;11.85;2.58;;;15.50;94.80;;;;;;5021983;28;20053;-80
2024/04/06 00:54:45;;;;;;;1.67;1.10;;;15.50;94.80;;;;;;5029951;28;20528;-80
2024/04/06 00:57:11;;;;;;;5.38;1.20;;;15.50;94.80;;;;;;5024047;28;20156;-81
2024/04/06 00:59:38;;;;;;;8.70;1.50;;;15.50;94.80;;;;;;5026287;28;20119;-80
2024/04/06 01:02:05;;;;;;;9.48;2.15;;;15.40;94.90;;;;;;5030954;28;20061;-80
2024/04/06 01:04:30;;;;;;;9.43;2.20;;;15.40;95.00;;;;;;5015129;28;20030;-80
2024/04/06 01:06:56;;;;;;;13.82;2.53;;;15.40;95.00;;;;;;5007396;28;20030;-80
2024/04/06 01:09:23;;;;;;;8.35;2.75;;;15.40;95.00;;;;;;5009175;28;20556;-80
2024/04/06 01:11:48;;;;;;;16.38;2.63;;;15.40;95.00;;;;;;5012359;28;20094;-80
2024/04/06 01:14:15;;;;;;;10.18;2.22;;;15.40;95.00;;;;;;5016964;28;20553;-80
2024/04/06 01:16:41;;;;;;;6.60;1.67;;;15.50;95.00;;;;;;5030990;28;20084;-80
2024/04/06 01:19:06;;;;;;;8.75;1.42;;;15.40;94.90;;;;;;5020031;28;20037;-80
2024/04/06 01:21:32;;;;;;;12.90;2.40;;;15.50;94.90;;;;;;5018194;28;20060;-81
2024/04/06 01:24:01;;;;;;;10.13;2.40;;;15.50;94.90;;;;;;5034903;28;20641;-80
2024/04/06 01:26:28;;;;;;;11.15;2.00;;;15.50;94.90;;;;;;5025704;28;20030;-81
2024/04/06 01:28:53;;;;;;;8.13;1.90;;;15.50;94.80;;;;;;5026229;28;20049;-81
2024/04/06 01:31:19;;;;;;;15.98;2.20;;;15.50;94.90;;;;;;5025131;28;20040;-81
2024/04/06 01:33:49;;;;;;;11.40;2.03;;;15.40;94.90;;;;;;5025878;28;20119;-81
2024/04/06 01:36:15;;;;;;;4.40;1.55;;;15.40;95.00;;;;;;5027930;28;20038;-81
2024/04/06 01:38:41;;;;;;;9.07;2.38;;;15.40;95.00;;;;;;5015394;28;20037;-81
2024/04/06 01:41:06;;;;;;;12.57;2.20;;;15.40;95.00;;;;;;5009677;28;20494;-80
2024/04/06 01:43:32;;;;;;;17.60;2.15;;;15.40;95.10;;;;;;5033650;28;20089;-82
2024/04/06 01:45:57;;;;;;;9.15;2.08;;;15.40;95.10;;;;;;5033521;28;20032;-81
2024/04/06 01:48:23;;;;;;;2.70;1.17;;;15.40;95.10;;;;;;5034125;28;20052;-81
2024/04/06 01:50:49;;;;;;;12.45;2.40;;;15.40;95.00;;;;;;5027698;28;20040;-82
2024/04/06 01:53:14;;;;;;;2.33;1.13;;;15.50;95.10;;;;;;5026641;28;20046;-82
2024/04/06 01:55:40;;;;;;;8.57;2.40;;;15.40;95.10;;;;;;5039995;28;20451;-81
2024/04/06 01:58:05;;;;;;;5.07;1.83;;;15.40;95.10;;;;;;5016264;28;20030;-81
2024/04/06 02:00:31;;;;;;;4.38;2.55;;;15.50;95.10;;;;;;5046812;28;20033;-81
2024/04/06 02:02:57;;;;;;;6.35;2.05;;;15.40;95.10;;;;;;5022762;28;20056;-81
2024/04/06 02:05:22;;;;;;;7.68;2.10;;;15.40;95.10;;;;;;5014342;28;20120;-81
2024/04/06 02:07:48;;;;;;;8.68;2.30;;;15.50;95.20;;;;;;5012723;28;20414;-82
2024/04/06 02:10:13;;;;;;;11.00;2.88;;;15.40;95.10;;;;;;5014418;28;20545;-81
2024/04/06 02:12:39;;;;;;;13.00;2.63;;;15.50;95.20;;;;;;5014145;28;20032;-81
2024/04/06 02:15:05;;;;;;;14.38;2.40;;;15.40;95.10;;;;;;5022714;28;20551;-81
2024/04/06 02:17:31;;;;;;;11.13;2.25;;;15.50;95.20;;;;;;5036441;28;20040;-81
2024/04/06 02:19:56;;;;;;;13.88;2.30;;;15.50;95.10;;;;;;5031964;28;20400;-81
2024/04/06 02:22:22;;;;;;;6.30;1.83;;;15.50;95.20;;;;;;5029394;28;20781;-81
2024/04/06 02:24:47;;;;;;;11.57;2.47;;;15.50;95.10;;;;;;5037263;28;20029;-81
2024/04/06 02:27:13;;;;;;;9.52;3.05;;;15.50;95.10;;;;;;5030662;28;20052;-81
2024/04/06 02:29:39;;;;;;;13.23;2.42;;;15.50;95.30;;;;;;5044074;28;20032;-81
2024/04/06 02:32:05;;;;;;;7.93;2.03;;;15.50;95.10;;;;;;5027719;28;20044;-81
2024/04/06 02:34:31;;;;;;;17.27;2.78;;;15.50;95.10;;;;;;5039046;28;20041;-81
2024/04/06 02:36:57;;;;;;;9.15;2.47;;;15.50;95.10;;;;;;5031569;28;20504;-81
2024/04/06 02:39:23;;;;;;;14.70;2.53;;;15.50;95.10;;;;;;5017473;28;20043;-81
2024/04/06 02:41:48;;;;;;;9.32;2.53;;;15.60;95.10;;;;;;5041621;28;20106;-81
2024/04/06 02:44:14;;;;;;;9.52;2.33;;;15.60;95.10;;;;;;5028173;28;20033;-81
2024/04/06 02:46:39;;;;;;;11.60;2.83;;;15.60;95.10;;;;;;5041299;28;20029;-82
2024/04/06 02:49:05;;;;;;;11.80;2.60;;;15.60;95.30;;;;;;5022081;28;20084;-82
2024/04/06 02:51:31;;;;;;;11.38;2.47;;;15.60;95.00;;;;;;5031302;28;20040;-81
2024/04/06 02:53:56;;;;;;;8.43;2.35;;;15.60;95.00;;;;;;5023404;28;20056;-82
2024/04/06 02:56:22;;;;;;;9.60;2.40;;;15.60;95.00;;;;;;5027382;28;20033;-81
2024/04/06 02:58:47;;;;;;;17.65;2.80;;;15.70;95.00;;;;;;5033430;28;20040;-81
2024/04/06 03:01:13;;;;;;;10.23;2.40;;;15.70;95.00;;;;;;5033781;28;20094;-80
2024/04/06 03:03:39;;;;;;;11.35;2.65;;;15.80;94.90;;;;;;5038361;28;20047;-81
2024/04/06 03:06:04;;;;;;;9.95;2.83;;;15.80;94.90;;;;;;5030478;28;20712;-81
2024/04/06 03:08:30;;;;;;;14.95;2.45;;;15.80;94.80;;;;;;5020998;28;20120;-81
2024/04/06 03:10:56;;;;;;;18.05;2.67;;;15.80;94.70;;;;;;5012919;28;20032;-80
2024/04/06 03:13:22;;;;;;;8.93;2.40;;;15.80;94.70;;;;;;5023270;28;20042;-81
2024/04/06 03:15:47;;;;;;;13.68;2.60;;;15.90;94.70;;;;;;5023794;28;20041;-81
2024/04/06 03:18:13;;;;;;;13.10;2.33;;;15.80;94.70;;;;;;5047881;28;20044;-81
2024/04/06 03:20:39;;;;;;;15.23;2.90;;;15.80;94.70;;;;;;5035435;28;20041;-81
2024/04/06 03:23:06;;;;;;;10.65;2.17;;;15.80;94.80;;;;;;5032045;28;20061;-81
2024/04/06 03:25:32;;;;;;;10.77;2.90;;;15.80;94.80;;;;;;5021435;28;20469;-81
2024/04/06 03:27:59;;;;;;;16.85;3.30;;;15.90;94.80;;;;;;5013683;28;20095;-82
2024/04/06 03:30:25;;;;;;;10.98;2.70;;;16.00;94.80;;;;;;5029680;28;20028;-82
2024/04/06 03:32:52;;;;;;;17.50;2.72;;;16.00;94.80;;;;;;5030954;28;20104;-82
2024/04/06 03:35:18;;;;;;;17.85;4.05;;;16.00;94.80;;;;;;5026087;28;20033;-82
2024/04/06 03:37:48;;;;;;;10.40;2.72;;;16.00;94.90;;;;;;5019372;28;20026;-82
2024/04/06 03:40:15;;;;;;;20.75;3.20;;;16.00;95.00;;;;;;5033226;28;20114;-81
2024/04/06 03:42:41;;;;;;;12.60;3.15;;;16.00;95.10;;;;;;5010808;28;20022;-82
2024/04/06 03:45:10;;;;;;;10.25;2.80;;;15.90;95.20;;;;;;5033123;28;20594;-82
2024/04/06 03:47:37;;;;;;;11.02;2.63;;;15.90;95.10;;;;;;5021833;28;20024;-82
2024/04/06 03:50:03;;;;;;;7.65;2.63;;;16.00;95.10;;;;;;5047764;28;20043;-81
2024/04/06 03:52:28;;;;;;;16.10;2.97;;;16.00;95.10;;;;;;5022938;28;20042;-81
2024/04/06 03:54:54;;;;;;;12.18;2.80;;;16.00;95.10;;;;;;5014469;28;20155;-82
2024/04/06 03:57:20;;;;;;;14.27;2.80;;;16.10;95.10;;;;;;5016767;28;20038;-81
2024/04/06 03:59:45;;;;;;;8.68;2.63;;;16.10;95.20;;;;;;5012269;28;20108;-81
2024/04/06 04:02:11;;;;;;;12.48;2.67;;;16.10;94.90;;;;;;5029527;28;20108;-81
2024/04/06 04:04:36;;;;;;;18.90;2.88;;;16.10;94.90;;;;;;5014832;28;20040;-81
2024/04/06 04:07:03;;;;;;;8.90;2.53;;;16.10;94.80;;;;;;5007551;28;20030;-82
2024/04/06 04:09:28;;;;;;;7.47;2.92;;;16.10;94.60;;;;;;5031432;28;20075;-81
2024/04/06 04:11:54;;;;;;;13.18;2.70;;;16.10;94.40;;;;;;5015070;28;20432;-81
2024/04/06 04:14:20;;;;;;;14.85;2.40;;;16.10;94.40;;;;;;5016453;28;21473;-81
2024/04/06 04:16:46;;;;;;;15.15;3.05;;;16.00;94.40;;;;;;5025435;28;20071;-81
2024/04/06 04:19:11;;;;;;;10.63;2.35;;;15.90;94.50;;;;;;5018330;28;20033;-81
2024/04/06 04:21:37;;;;;;;10.10;2.90;;;15.90;94.60;;;;;;5020948;28;20068;-80
2024/04/06 04:24:03;;;;;;;16.77;3.63;;;15.80;94.70;;;;;;5028225;28;20382;-81
2024/04/06 04:26:28;;;;;;;10.90;2.80;;;15.80;94.70;;;;;;5010650;28;20109;-81
2024/04/06 04:28:54;;;;;;;14.43;2.80;;;15.80;94.80;;;;;;5021227;28;20429;-81
2024/04/06 04:31:20;;;;;;;13.23;3.13;;;15.80;94.70;;;;;;5018800;28;20030;-81
2024/04/06 04:33:45;;;;;;;14.82;3.40;;;15.80;94.80;;;;;;5032402;28;20037;-81
2024/04/06 04:36:12;;;;;;;9.35;2.85;;;15.80;94.80;;;;;;5026690;28;20488;-81
2024/04/06 04:38:38;;;;;;;15.10;3.05;;;15.80;95.10;;;;;;5021569;28;20124;-81
2024/04/06 04:41:04;;;;;;;12.25;3.00;;;15.80;94.90;;;;;;5033523;28;20065;-82
2024/04/06 04:43:30;;;;;;;14.70;3.20;;;15.80;95.00;;;;;;5008502;28;20077;-81
2024/04/06 04:45:56;;;;;;;7.07;2.42;;;15.90;95.10;;;;;;5008786;28;20072;-81
2024/04/06 04:48:23;;;;;;;14.07;3.15;;;15.90;95.00;;;;;;5021081;28;20037;-81
2024/04/06 04:50:49;;;;;;;12.77;3.17;;;15.90;95.00;;;;;;5039711;28;20056;-81
2024/04/06 04:53:14;;;;;;;17.95;3.50;;;16.00;95.00;;;;;;5028688;28;20787;-82
2024/04/06 04:55:40;;;;;;;15.57;3.05;;;16.00;95.00;;;;;;5039543;28;20040;-82
2024/04/06 04:58:05;;;;;;;10.30;3.20;;;16.00;95.00;;;;;;5016898;28;20029;-81
2024/04/06 05:00:31;;;;;;;12.30;3.05;;;16.00;95.00;;;;;;5026121;28;20470;-81
2024/04/06 05:02:57;;;;;;;13.57;3.10;;;16.10;95.00;;;;;;5023647;28;20033;-81
2024/04/06 05:05:25;;;;;;;14.27;2.90;;;16.10;95.00;;;;;;5016189;28;20045;-81
2024/04/06 05:07:51;;;;;;;11.82;4.07;;;16.10;95.00;;;;;;5019456;28;20444;-81
2024/04/06 05:10:16;;;;;;;14.27;3.50;;;16.10;95.10;;;;;;5021933;28;20065;-82
2024/04/06 05:12:42;;;;;;;11.68;3.22;;;16.10;95.10;;;;;;5021450;28;20531;-81
2024/04/06 05:15:08;;;;;;;15.27;3.55;;;16.10;95.20;;;;;;5023326;28;20034;-82
2024/04/06 05:17:36;;;;;;;10.95;3.67;;;16.00;95.20;;;;;;5026707;28;20476;-81
2024/04/06 05:20:02;;;;;;;9.88;3.25;;;16.00;95.20;;;;;;5022245;28;20038;-81
2024/04/06 05:22:27;;;;;;;11.32;3.42;;;16.00;95.30;;;;;;5025128;28;20041;-81
2024/04/06 05:24:53;;;;;;;12.27;3.70;;;16.10;95.40;;;;;;5018463;28;20038;-81
2024/04/06 05:27:19;;;;;;;9.77;3.30;;;16.10;95.40;;;;;;5011147;28;20034;-82
2024/04/06 05:29:45;;;;;;;11.23;3.45;;;16.00;95.40;;;;;;5012304;28;20481;-82
2024/04/06 05:32:11;;;;;;;12.90;3.55;;;16.00;95.40;;;;;;5011695;28;20034;-81
2024/04/06 05:34:36;;;;;;;12.77;3.78;;;16.00;95.30;;;;;;5022940;28;20048;-81
2024/04/06 05:37:02;;;;;;;11.85;4.07;;;16.10;95.20;;;;;;5013658;28;20026;-81
2024/04/06 05:39:28;;;;;;;12.68;3.45;;;16.10;95.20;;;;;;5021637;28;20396;-82
2024/04/06 05:41:54;;;;;;;12.43;4.05;;;16.10;95.30;;;;;;5044170;28;20021;-81
2024/04/06 05:44:22;;;;;;;11.13;4.10;;;16.10;95.40;;;;;;5022099;28;20038;-81
2024/04/06 05:46:48;;;;;;;9.52;4.05;;;16.10;95.40;;;;;;5017990;28;20159;-81
2024/04/06 05:49:13;;;;;;;12.48;4.47;;;16.10;95.60;;;;;;5019407;28;20106;-78
2024/04/06 05:51:39;;;;;;;12.45;4.60;;;16.10;95.60;;;;;;5031078;28;20103;-79
2024/04/06 05:54:04;;;;;;;19.83;4.57;;;16.10;95.70;;;;;;5019224;28;20435;-80
2024/04/06 05:56:30;;;;;;;12.55;4.35;;;16.10;95.80;;;;;;5018487;28;20056;-80
2024/04/06 05:58:56;;;;;;;13.60;4.75;;;16.10;95.80;;;;;;5030416;28;20033;-81
2024/04/06 06:01:22;;;;;;;14.68;5.30;;;16.10;95.90;;;;;;5012904;28;20029;-82
2024/04/06 06:03:48;;;;;;;14.65;4.85;;;16.10;95.80;;;;;;5034328;28;20068;-74
2024/04/06 06:06:13;;;;;;;9.20;4.50;;;16.10;95.80;;;;;;5027712;28;20087;-81
2024/04/06 06:08:39;;;;;;;11.25;4.72;;;16.10;95.90;;;;;;5025689;28;20045;-81
2024/04/06 06:11:05;;;;;;;10.05;5.03;;;16.10;96.10;;;;;;5019334;28;20083;-81
2024/04/06 06:13:32;;;;;;;11.52;5.00;;;16.00;96.20;;;;;;5025675;28;20045;-81
2024/04/06 06:15:59;;;;;;;8.77;5.07;;;16.00;96.30;;;;;;5048013;28;20419;-81
2024/04/06 06:18:25;;;;;;;10.95;5.00;;;16.00;96.40;;;;;;5029086;28;20366;-85
2024/04/06 06:20:50;;;;;;;16.65;5.10;;;16.00;96.50;;;;;;5027939;28;20033;-87
2024/04/06 06:23:16;;;;;;;14.07;5.57;;;16.00;96.60;;;;;;5025610;28;20025;-85
2024/04/06 06:25:42;;;;;;;12.35;5.28;;;15.90;96.60;;;;;;5025754;28;20057;-87
2024/04/06 06:28:08;;;;;;;10.70;5.38;;;15.90;96.70;;;;;;5021783;28;20046;-83
2024/04/06 06:30:33;;;;;;;13.27;5.25;;;15.90;96.80;;;;;;5022990;28;20040;-82
2024/04/06 06:32:59;;;;;;;9.95;5.95;;;15.90;96.90;;;;;;5016463;28;20084;-79
2024/04/06 06:35:24;;;;;;;12.93;5.43;;;15.90;96.90;;;;;;5020271;28;20033;-89
2024/04/06 06:37:50;;;;;;;11.80;4.55;;;15.90;96.90;;;;;;5024031;28;20034;-80
2024/04/06 06:40:16;;;;;;;13.60;5.95;;;15.90;97.10;;;;;;5010338;28;20034;-81
2024/04/06 06:42:42;;;;;;;8.82;5.13;;;15.90;97.00;;;;;;5025944;28;20046;-81
2024/04/06 06:45:08;;;;;;;8.88;4.72;;;15.90;97.00;;;;;;5021830;28;20045;-80
2024/04/06 06:47:33;;;;;;;10.75;5.63;;;16.00;97.10;;;;;;5028352;28;20119;-80
2024/04/06 06:49:59;;;;;;;9.38;4.68;;;16.00;97.20;;;;;;5025520;28;20036;-83
2024/04/06 06:52:25;;;;;;;8.10;4.82;;;16.00;97.50;;;;;;5020229;28;20738;-80
2024/04/06 06:54:51;;;;;;;8.10;5.20;;;16.10;97.10;;;;;;5023031;28;20070;-82
2024/04/06 06:57:16;;;;;;;10.38;5.25;;;16.10;97.20;;;;;;5028803;28;20030;-82
2024/04/06 06:59:42;;;;;;;9.68;3.28;;;16.10;97.00;;;;;;5019536;28;20041;-82
2024/04/06 07:02:07;;;;;;;6.93;3.75;;;16.20;96.80;;;;;;5031528;28;20112;-81
2024/04/06 07:04:35;;;;;;;5.13;3.60;;;16.20;96.60;;;;;;5019052;28;20034;-82
2024/04/06 07:07:01;;;;;;;8.65;3.88;;;16.30;96.40;;;;;;5026738;28;20432;-82
2024/04/06 07:09:28;;;;;;;7.43;3.85;;;16.30;96.20;;;;;;5019316;28;20041;-82
2024/04/06 07:11:54;;;;;;;9.70;3.97;;;16.30;96.20;;;;;;5020577;28;20032;-82
2024/04/06 07:14:19;;;;;;;7.47;3.88;;;16.30;96.40;;;;;;5013991;28;20508;-82
2024/04/06 07:16:45;;;;;;;8.27;3.42;;;16.40;96.40;;;;;;5016577;28;20030;-82
2024/04/06 07:19:11;;;;;;;8.38;3.90;;;16.40;96.40;;;;;;5020068;28;20113;-82
2024/04/06 07:21:37;;;;;;;8.45;4.00;;;16.40;96.40;;;;;;5031680;28;20067;-82
2024/04/06 07:24:03;;;;;;;9.73;4.43;;;16.40;96.70;;;;;;5020927;28;20417;-83
2024/04/06 07:26:32;;;;;;;10.27;4.68;;;16.40;96.70;;;;;;5026182;28;20030;-84
2024/04/06 07:28:58;;;;;;;6.80;3.70;;;16.40;96.80;;;;;;5034097;28;20025;-83
2024/04/06 07:31:24;;;;;;;11.50;5.00;;;16.30;97.00;;;;;;5037423;28;20404;-83
2024/04/06 07:33:52;;;;;;;8.38;3.00;;;16.40;96.80;;;;;;5030952;28;20438;-82
2024/04/06 07:36:18;;;;;;;3.70;2.33;;;16.40;97.00;;;;;;5028706;28;20034;-79
2024/04/06 07:38:44;;;;;;;6.28;3.92;;;16.40;97.10;;;;;;5011293;28;20496;-81
2024/04/06 07:41:10;;;;;;;5.78;2.92;;;16.40;97.00;;;;;;5017081;28;20105;-80
2024/04/06 07:43:36;;;;;;;7.60;3.17;;;16.50;96.80;;;;;;5031924;28;20466;-85
2024/04/06 07:46:02;;;;;;;9.27;3.22;;;16.50;96.90;;;;;;5022445;28;20119;-82
2024/04/06 07:48:27;;;;;;;8.68;3.42;;;16.60;96.80;;;;;;5021797;28;20393;-84
2024/04/06 07:50:53;;;;;;;5.75;2.72;;;16.60;96.80;;;;;;5022881;28;20033;-83
2024/04/06 07:53:19;;;;;;;8.32;3.03;;;16.60;96.80;;;;;;5010969;28;20054;-81
2024/04/06 07:55:45;;;;;;;7.18;3.15;;;16.70;96.80;;;;;;5024811;28;20041;-82
2024/04/06 07:58:11;;;;;;;9.60;3.25;;;16.70;96.90;;;;;;5027660;28;20041;-81
2024/04/06 08:00:37;;;;;;;7.70;3.08;;;16.70;96.80;;;;;;5023459;28;20029;-77
2024/04/06 08:03:06;;;;;;;8.15;2.08;;;16.80;96.90;;;;;;5027499;28;20121;-81
2024/04/06 08:05:32;;;;;;;4.80;2.58;;;16.80;96.90;;;;;;5017033;28;20037;-80
2024/04/06 08:07:58;;;;;;;7.82;2.67;;;16.90;97.00;;;;;;5011251;28;20129;-76
2024/04/06 08:10:24;;;;;;;6.65;2.50;;;16.90;96.90;;;;;;5010051;28;20806;-80
2024/04/06 08:12:51;;;;;;;7.03;2.90;;;16.90;96.70;;;;;;5023226;28;20033;-74
2024/04/06 08:15:16;;;;;;;12.57;3.05;;;17.00;96.90;;;;;;5022292;28;20100;-79
2024/04/06 08:17:46;;;;;;;5.03;2.90;;;17.10;97.00;;;;;;5017473;28;20515;-82
2024/04/06 08:20:12;;;;;;;7.90;2.92;;;17.10;97.20;;;;;;5016245;28;20066;-82
2024/04/06 08:22:41;;;;;;;7.95;2.90;;;17.10;97.10;;;;;;5019782;28;20041;-81
2024/04/06 08:25:07;;;;;;;3.78;2.53;;;17.20;96.90;;;;;;5035033;28;20040;-80
2024/04/06 08:27:33;;;;;;;5.30;2.60;;;17.20;96.50;;;;;;5010741;28;20037;-81
2024/04/06 08:30:00;;;;;;;6.13;2.50;;;17.20;96.70;;;;;;5013442;28;20033;-79
2024/04/06 08:32:28;;;;;;;5.78;2.50;;;17.20;97.00;;;;;;5010469;28;20040;-82
2024/04/06 08:34:55;;;;;;;6.50;3.20;;;17.30;97.10;;;;;;5020931;28;20038;-76
2024/04/06 08:37:21;;;;;;;5.40;2.53;;;17.30;96.90;;;;;;5033347;28;20041;-82
2024/04/06 08:39:47;;;;;;;3.17;1.85;;;17.40;97.30;;;;;;5028466;28;20022;-82
2024/04/06 08:42:17;;;;;;;4.40;1.98;;;17.40;97.20;;;;;;5026906;28;20376;-80
2024/04/06 08:44:44;;;;;;;2.33;1.02;;;17.40;97.30;;;;;;5024308;28;20546;-80
2024/04/06 08:47:15;;;;;;;3.03;1.63;;;17.50;97.40;;;;;;5017897;28;20053;-80
2024/04/06 08:49:41;;;;;;;4.13;1.60;;;17.50;97.50;;;;;;5018223;28;20128;-79
2024/04/06 08:52:08;;;;;;;3.38;1.75;;;17.60;97.30;;;;;;5018626;28;20680;-81
2024/04/06 08:54:37;;;;;;;2.08;1.58;;;17.60;97.30;;;;;;5016313;28;20132;-78
2024/04/06 08:57:04;;;;;;;3.83;1.70;;;17.70;97.40;;;;;;5028187;28;20043;-78
2024/04/06 08:59:30;;;;;;;2.08;1.38;;;17.70;97.70;;;;;;5014934;28;20038;-76
2024/04/06 09:01:56;;;;;;;3.70;1.73;;;17.80;97.70;;;;;;5025265;28;20036;-79
2024/04/06 09:04:21;;;;;;;6.97;2.28;;;17.80;97.60;;;;;;5017235;28;20026;-80
2024/04/06 09:06:47;;;;;;;1.95;1.35;;;17.90;97.50;;;;;;5025844;28;20481;-78
2024/04/06 09:09:13;;;;;;;5.72;2.30;;;17.90;97.60;;;;;;5035346;28;20485;-79
2024/04/06 09:11:40;;;;;;;6.57;1.95;;;17.90;97.30;;;;;;5034755;28;20034;-79
2024/04/06 09:14:06;;;;;;;5.20;1.83;;;18.00;97.80;;;;;;5017405;28;20037;-81
2024/04/06 09:16:33;;;;;;;6.55;1.80;;;18.10;98.00;;;;;;5019395;28;20033;-82
2024/04/06 09:18:59;;;;;;;4.38;1.58;;;18.10;97.70;;;;;;5030505;28;20025;-80
2024/04/06 09:21:25;;;;;;;4.15;1.70;;;18.10;97.90;;;;;;5012878;28;20026;-80
2024/04/06 09:23:54;;;;;;;5.10;1.65;;;18.20;97.70;;;;;;5020432;28;20417;-79
2024/04/06 09:26:20;;;;;;;3.13;1.65;;;18.20;97.90;;;;;;5016983;28;20466;-78
2024/04/06 09:28:53;;;;;;;3.45;2.00;;;18.30;97.80;;;;;;5022909;28;20041;-79
2024/04/06 09:31:22;;;;;;;5.97;1.95;;;18.30;98.00;;;;;;5014823;28;20520;-79
2024/04/06 09:33:52;;;;;;;3.35;1.80;;;18.30;97.90;;;;;;5026084;28;20037;-80
2024/04/06 09:36:19;;;;;;;4.13;2.00;;;18.40;98.10;;;;;;5023415;28;20047;-80
2024/04/06 09:38:47;;;;;;;5.60;1.83;;;18.50;98.00;;;;;;5012039;28;20473;-77
2024/04/06 09:41:17;;;;;;;7.75;2.28;;;18.50;98.00;;;;;;5017129;28;20029;-77
2024/04/06 09:43:52;;;;;;;5.78;2.25;;;18.50;98.10;;;;;;5014155;28;20033;-79
2024/04/06 09:46:18;;;;;;;8.38;2.10;;;18.40;98.50;;;;;;5023166;28;20497;-73
2024/04/06 09:48:44;;;;;;;12.10;2.38;;;18.50;98.50;;;;;;5033233;28;20030;-79
2024/04/06 09:51:10;;;;;;;4.70;1.83;;;18.50;98.50;;;;;;5032957;28;20140;-80
2024/04/06 09:53:38;;;;;;;7.78;2.30;;;18.50;98.60;;;;;;5023131;28;20146;-78
2024/04/06 09:56:05;;;;;;;6.57;2.70;;;18.60;98.60;;;;;;5009094;28;20036;-79
2024/04/06 09:58:32;;;;;;;4.82;2.00;;;18.50;98.90;;;;;;5025860;28;20121;-78
2024/04/06 10:01:15;;;;;;;4.45;2.00;;;18.60;99.00;;;;;;5012209;28;20041;-76
2024/04/06 10:03:48;;;;;;;6.22;1.95;;;18.70;99.00;;;;;;5017376;28;20129;-79
2024/04/06 10:06:28;;;;;;;5.10;1.40;;;18.80;99.00;;;;;;5011276;28;20030;-77
2024/04/06 10:08:59;;;;;;;6.80;2.28;;;18.70;99.10;;;;;;5016536;28;20029;-80
2024/04/06 10:11:28;;;;;;;6.13;2.15;;;18.80;99.10;;;;;;5024272;28;20116;-79
2024/04/06 10:13:56;;;;;;;9.82;2.45;;;18.90;99.10;;;;;;5024120;28;20049;-79
2024/04/06 10:16:22;;;;;;;5.25;2.30;;;18.90;99.30;;;;;;5025769;28;20469;-79
2024/04/06 10:18:48;;;;;;;4.22;2.22;;;18.90;99.40;;;;;;5021380;28;20037;-79
2024/04/06 10:21:16;;;;;;;5.00;2.03;;;19.00;99.30;;;;;;5028882;28;20128;-79
2024/04/06 10:23:48;;;;;;;6.78;2.05;;;19.10;99.20;;;;;;5026967;28;20048;-79
2024/04/06 10:26:17;;;;;;;4.55;2.20;;;19.20;99.10;;;;;;5011172;28;20034;-79
2024/04/06 10:28:44;;;;;;;8.70;2.42;;;19.20;99.30;;;;;;5007767;28;20037;-79
2024/04/06 10:31:10;;;;;;;4.45;2.33;;;19.20;99.50;;;;;;5019784;28;20108;-79
2024/04/06 10:33:39;;;;;;;4.72;2.22;;;19.20;99.60;;;;;;5021187;28;20128;-79
2024/04/06 10:36:09;;;;;;;6.25;1.88;;;19.30;99.60;;;;;;5023935;28;20030;-79
2024/04/06 10:38:36;;;;;;;7.68;1.80;;;19.30;99.70;;;;;;5027209;28;20042;-79
2024/04/06 10:41:03;;;;;;;3.35;2.17;;;19.40;99.50;;;;;;5017228;28;20029;-79
2024/04/06 10:43:30;;;;;;;9.63;2.65;;;19.40;99.40;;;;;;5019680;28;20148;-79
2024/04/06 10:45:56;;;;;;;4.35;2.20;;;19.50;99.50;;;;;;5010918;28;20025;-79
2024/04/06 10:48:22;;;;;;;4.85;2.90;;;19.50;99.60;;;;;;5021428;28;20033;-79
2024/04/06 10:50:48;;;;;;;5.57;2.00;;;19.60;99.70;;;;;;5030960;28;20065;-79
2024/04/06 10:53:15;;;;;;;4.30;2.03;;;19.60;99.70;;;;;;5017891;28;20140;-79
2024/04/06 10:55:43;;;;;;;1.70;1.02;;;19.60;99.70;;;;;;5027037;28;20443;-79
2024/04/06 10:58:09;;;;;;;2.22;1.00;;;19.70;99.80;;;;;;5018153;28;20060;-79
2024/04/06 11:00:39;;;;;;;4.03;1.70;;;19.70;99.70;;;;;;5023821;28;20033;-79
2024/04/06 11:03:07;;;;;;;4.57;1.90;;;19.80;99.50;;;;;;5029080;28;20036;-79
2024/04/06 11:05:36;;;;;;;5.63;1.65;;;19.80;99.70;;;;;;5025639;28;20083;-81
2024/04/06 11:08:03;;;;;;;3.85;1.60;;;19.90;99.60;;;;;;5027248;28;20123;-79
2024/04/06 11:10:29;;;;;;;5.45;1.85;;;19.90;99.50;;;;;;5023971;28;20037;-81
2024/04/06 11:12:59;;;;;;;9.50;2.08;;;20.00;99.50;;;;;;5028821;28;20100;-79
2024/04/06 11:15:26;;;;;;;5.22;2.20;;;20.10;99.60;;;;;;5016671;28;20073;-79
2024/04/06 11:17:53;;;;;;;4.40;1.80;;;20.10;99.80;;;;;;5028360;28;20071;-78
2024/04/06 11:20:19;;;;;;;5.07;1.70;;;20.20;99.40;;;;;;5028794;28;20891;-80
2024/04/06 11:22:45;;;;;;;7.25;2.03;;;20.20;99.40;;;;;;5014287;28;20034;-76
2024/04/06 11:25:18;;;;;;;5.13;2.05;;;20.30;99.40;;;;;;5021992;28;20052;-76
2024/04/06 11:27:48;;;;;;;4.32;1.90;;;20.30;99.30;;;;;;5028424;28;20045;-76
2024/04/06 11:30:18;;;;;;;4.72;1.60;;;20.30;99.50;;;;;;5026057;28;20076;-75
2024/04/06 11:32:44;;;;;;;3.80;1.50;;;20.40;99.40;;;;;;5019978;28;20092;-76
2024/04/06 11:35:10;;;;;;;9.43;2.00;;;20.50;99.30;;;;;;5020964;28;20077;-76
2024/04/06 11:37:37;;;;;;;4.30;1.88;;;20.60;99.20;;;;;;5015464;28;20076;-75
2024/04/06 11:40:04;;;;;;;3.38;1.92;;;20.70;99.40;;;;;;5016367;28;20046;-76
2024/04/06 11:42:29;;;;;;;10.95;2.00;;;20.70;99.10;;;;;;5014892;28;20029;-76
2024/04/06 11:44:55;;;;;;;9.65;2.22;;;20.70;99.20;;;;;;5009728;28;20044;-76
2024/04/06 11:47:21;;;;;;;4.38;1.88;;;20.80;99.30;;;;;;5015069;28;20053;-77
2024/04/06 11:49:48;;;;;;;3.40;2.00;;;20.90;99.10;;;;;;5022651;28;20029;-77
2024/04/06 11:52:14;;;;;;;2.92;1.40;;;20.90;99.00;;;;;;5021205;28;20045;-76
2024/04/06 11:54:42;;;;;;;7.63;2.13;;;21.00;99.10;;;;;;5021880;28;20049;-77
2024/04/06 11:57:08;;;;;;;6.15;1.75;;;21.00;99.10;;;;;;5025005;28;20445;-77
2024/04/06 11:59:33;;;;;;;6.88;1.67;;;21.00;99.00;;;;;;5013734;28;20037;-76
2024/04/06 12:01:59;;;;;;;3.33;1.70;;;21.10;98.80;;;;;;5014739;28;20740;-77
2024/04/06 12:04:25;;;;;;;7.63;1.70;;;21.20;98.90;;;;;;5020735;28;20026;-77
2024/04/06 12:06:52;;;;;;;6.00;1.33;;;21.20;99.00;;;;;;5008779;28;20026;-76
2024/04/06 12:09:21;;;;;;;5.07;1.60;;;21.30;98.70;;;;;;5011392;28;20025;-76
2024/04/06 12:11:46;;;;;;;2.17;1.30;;;21.30;98.90;;;;;;5008733;28;20033;-76
2024/04/06 12:14:12;;;;;;;4.20;1.60;;;21.40;99.10;;;;;;5017943;28;20085;-75
2024/04/06 12:16:37;;;;;;;4.70;1.30;;;21.40;98.80;;;;;;5017346;28;20040;-72
2024/04/06 12:19:03;;;;;;;5.13;1.70;;;21.50;98.90;;;;;;5021090;28;20033;-75
2024/04/06 12:21:29;;;;;;;5.15;1.88;;;21.50;99.00;;;;;;5027014;28;20477;-75
2024/04/06 12:23:55;;;;;;;3.75;1.75;;;21.50;99.20;;;;;;5020769;28;20041;-75
2024/04/06 12:26:21;;;;;;;11.65;1.83;;;21.50;99.20;;;;;;5030917;28;20029;-75
2024/04/06 12:28:48;;;;;;;4.57;2.00;;;21.60;98.80;;;;;;5009469;28;20535;-75
2024/04/06 12:31:16;;;;;;;5.10;1.67;;;21.70;98.60;;;;;;5019236;28;20029;-75
2024/04/06 12:33:41;;;;;;;4.07;1.83;;;21.70;98.80;;;;;;5031424;28;20041;-75
2024/04/06 12:36:07;;;;;;;4.53;1.95;;;21.70;99.30;;;;;;5044227;28;20039;-76
2024/04/06 12:38:34;;;;;;;5.15;2.15;;;21.70;99.30;;;;;;5023629;28;20400;-75